createdAt,value
2023-05-07T00:04:00.487Z,1.40
2023-05-07T00:08:02.633Z,1.50
2023-05-07T00:12:04.755Z,1.40
2023-05-07T00:16:06.837Z,1.33
2023-05-07T00:20:09.480Z,1.30
2023-05-07T00:24:11.643Z,1.50
2023-05-07T00:28:13.716Z,1.25
2023-05-07T00:32:16.028Z,1.13
2023-05-07T00:36:18.221Z,1.10
2023-05-07T00:40:20.476Z,1.48
2023-05-07T00:44:22.476Z,1.10
2023-05-07T00:48:25.876Z,1.40
2023-05-07T00:52:28.797Z,1.35
2023-05-07T00:56:31.306Z,1.40
2023-05-07T01:00:33.407Z,1.52
2023-05-07T01:04:36.211Z,1.27
2023-05-07T01:08:40.708Z,1.50
2023-05-07T01:12:44.486Z,1.45
2023-05-07T01:16:47.231Z,1.20
2023-05-07T01:20:49.554Z,1.58
2023-05-07T01:24:51.919Z,1.45
2023-05-07T01:28:54.529Z,1.67
2023-05-07T01:33:05.195Z,1.55
2023-05-07T01:37:07.669Z,1.40
2023-05-07T01:41:09.726Z,1.50
2023-05-07T01:45:12.596Z,1.55
2023-05-07T01:49:15.298Z,1.38
2023-05-07T01:53:17.367Z,1.15
2023-05-07T01:57:19.413Z,1.13
2023-05-07T02:01:21.705Z,1.40
2023-05-07T02:05:25.271Z,1.30
2023-05-07T02:09:39.243Z,1.25
2023-05-07T02:13:42.704Z,1.75
2023-05-07T02:18:05.525Z,1.70
2023-05-07T02:22:08.575Z,1.42
2023-05-07T02:26:11.992Z,1.60
2023-05-07T02:30:14.999Z,1.52
2023-05-07T02:34:18.224Z,1.75
2023-05-07T02:38:20.420Z,1.67
2023-05-07T02:42:22.501Z,1.50
2023-05-07T02:46:24.629Z,1.50
2023-05-07T02:50:34.591Z,1.60
2023-05-07T02:54:37.062Z,1.48
2023-05-07T02:58:45.491Z,1.60
2023-05-07T03:02:49.013Z,1.60
2023-05-07T03:06:51.208Z,1.58
2023-05-07T03:10:53.300Z,2.10
2023-05-07T03:14:55.335Z,1.80
2023-05-07T03:18:57.435Z,1.67
2023-05-07T03:22:59.753Z,1.80
2023-05-07T03:27:02.098Z,1.80
2023-05-07T03:31:05.143Z,1.60
2023-05-07T03:35:08.223Z,1.50
2023-05-07T03:39:10.437Z,1.50
2023-05-07T03:43:15.672Z,1.55
2023-05-07T03:47:22.335Z,1.45
2023-05-07T03:51:24.574Z,1.48
2023-05-07T03:55:26.795Z,1.48
2023-05-07T03:59:33.887Z,1.55
2023-05-07T04:03:36.226Z,1.45
2023-05-07T04:07:38.983Z,1.50
2023-05-07T04:11:41.656Z,1.65
2023-05-07T04:15:47.390Z,1.60
2023-05-07T04:19:51.835Z,1.98
2023-05-07T04:23:54.502Z,1.52
2023-05-07T04:27:58.047Z,1.85
2023-05-07T04:32:02.746Z,1.75
2023-05-07T04:36:05.677Z,1.83
2023-05-07T04:40:12.856Z,1.48
2023-05-07T04:44:15.710Z,1.65
2023-05-07T04:48:20.209Z,1.60
2023-05-07T04:52:23.796Z,1.70
2023-05-07T04:56:29.855Z,1.90
2023-05-07T05:00:32.674Z,1.45
2023-05-07T05:04:36.121Z,1.92
2023-05-07T05:08:38.437Z,1.95
2023-05-07T05:12:41.206Z,1.70
2023-05-07T05:16:43.341Z,1.70
2023-05-07T05:20:46.304Z,1.42
2023-05-07T05:24:48.696Z,1.50
2023-05-07T05:28:50.858Z,1.50
2023-05-07T05:32:55.902Z,1.50
2023-05-07T05:36:59.451Z,1.42
2023-05-07T05:41:01.626Z,1.42
2023-05-07T05:45:05.728Z,1.38
2023-05-07T05:49:09.594Z,1.60
2023-05-07T05:53:13.418Z,1.73
2023-05-07T05:57:15.654Z,1.35
2023-05-07T06:01:19.527Z,1.98
2023-05-07T06:05:22.958Z,2.20
2023-05-07T06:09:29.396Z,1.80
2023-05-07T06:13:31.831Z,1.88
2023-05-07T06:17:34.055Z,2.00
2023-05-07T06:21:36.271Z,2.00
2023-05-07T06:25:38.818Z,2.05
2023-05-07T06:29:40.981Z,1.77
2023-05-07T06:33:50.292Z,1.98
2023-05-07T06:37:52.703Z,2.00
2023-05-07T06:41:59.264Z,1.80
2023-05-07T06:50:10.994Z,2.10
2023-05-07T06:54:13.899Z,1.98
2023-05-07T06:58:17.372Z,2.10
2023-05-07T07:02:19.642Z,1.85
2023-05-07T07:06:23.929Z,2.10
2023-05-07T07:10:26.120Z,2.10
2023-05-07T07:14:30.208Z,2.00
2023-05-07T07:18:32.437Z,1.95
2023-05-07T07:22:35.011Z,2.10
2023-05-07T07:26:37.087Z,2.42
2023-05-07T07:30:40.377Z,2.40
2023-05-07T07:34:42.505Z,2.47
2023-05-07T07:38:45.314Z,2.90
2023-05-07T07:42:48.309Z,2.80
2023-05-07T07:46:51.646Z,2.80
2023-05-07T07:50:54.344Z,2.90
2023-05-07T07:54:56.849Z,2.88
2023-05-07T07:58:59.554Z,3.30
2023-05-07T08:03:04.187Z,3.40
2023-05-07T08:07:11.281Z,2.70
2023-05-07T08:11:16.885Z,3.47
2023-05-07T08:15:19.353Z,2.95
2023-05-07T08:19:22.725Z,1.90
2023-05-07T08:23:25.495Z,2.10
2023-05-07T08:27:27.906Z,2.03
2023-05-07T08:31:30.131Z,1.90
2023-05-07T08:35:32.308Z,1.92
2023-05-07T08:39:34.423Z,2.00
2023-05-07T08:43:37.385Z,1.90
2023-05-07T08:47:52.470Z,2.20
2023-05-07T08:51:56.770Z,2.25
2023-05-07T08:56:00.373Z,2.28
2023-05-07T09:00:08.180Z,2.30
2023-05-07T09:04:13.834Z,2.25
2023-05-07T09:08:17.475Z,2.40
2023-05-07T09:12:22.360Z,2.28
2023-05-07T09:16:25.242Z,2.10
2023-05-07T09:20:27.351Z,2.67
2023-05-07T09:24:31.884Z,2.00
2023-05-07T09:28:34.185Z,2.40
2023-05-07T09:32:39.234Z,2.08
2023-05-07T09:36:43.745Z,2.03
2023-05-07T09:40:47.955Z,2.63
2023-05-07T09:44:51.513Z,2.40
2023-05-07T09:49:03.383Z,2.65
2023-05-07T09:53:10.912Z,2.22
2023-05-07T09:57:14.812Z,2.20
2023-05-07T10:01:23.001Z,2.30
2023-05-07T10:05:27.014Z,2.10
2023-05-07T10:09:32.240Z,2.15
2023-05-07T10:13:38.795Z,2.30
2023-05-07T10:17:43.743Z,2.30
2023-05-07T10:21:55.161Z,2.47
2023-05-07T10:26:00.954Z,2.80
2023-05-07T10:30:33.141Z,2.10
2023-05-07T10:34:44.099Z,2.20
2023-05-07T10:38:47.520Z,2.20
2023-05-07T10:43:01.389Z,2.60
2023-05-07T10:47:10.980Z,2.20
2023-05-07T10:51:23.012Z,2.25
2023-05-07T10:55:32.542Z,1.90
2023-05-07T10:59:46.109Z,2.15
2023-05-07T11:04:25.211Z,2.40
2023-05-07T11:08:57.923Z,2.53
2023-05-07T11:13:07.376Z,2.00
2023-05-07T11:17:21.728Z,2.00
2023-05-07T11:21:40.041Z,1.75
2023-05-07T11:26:12.501Z,2.30
2023-05-07T11:30:21.633Z,2.10
2023-05-07T11:34:26.496Z,1.80
2023-05-07T11:38:38.232Z,2.10
2023-05-07T11:42:43.332Z,2.08
2023-05-07T11:46:46.204Z,2.17
2023-05-07T11:51:05.933Z,1.80
2023-05-07T11:55:08.962Z,1.90
2023-05-07T11:59:11.203Z,2.20
2023-05-07T12:03:13.271Z,2.22
2023-05-07T12:07:16.310Z,1.88
2023-05-07T12:11:24.804Z,2.00
2023-05-07T12:15:26.848Z,1.88
2023-05-07T12:19:30.238Z,1.80
2023-05-07T12:23:32.552Z,1.40
2023-05-07T12:27:38.124Z,2.15
2023-05-07T12:31:43.620Z,2.42
2023-05-07T12:35:45.730Z,2.33
2023-05-07T12:40:04.078Z,2.03
2023-05-07T12:44:06.542Z,2.10
2023-05-07T12:48:11.438Z,2.13
2023-05-07T12:52:14.275Z,2.53
2023-05-07T12:56:16.933Z,2.80
2023-05-07T13:00:32.740Z,2.78
2023-05-07T13:04:34.970Z,2.28
2023-05-07T13:08:41.200Z,2.70
2023-05-07T13:12:43.400Z,2.80
2023-05-07T13:16:45.559Z,2.30
2023-05-07T13:20:47.667Z,2.30
2023-05-07T13:24:49.679Z,2.22
2023-05-07T13:28:52.174Z,2.13
2023-05-07T13:32:56.801Z,2.03
2023-05-07T13:36:58.839Z,1.90
2023-05-07T13:41:00.937Z,1.60
2023-05-07T13:45:06.292Z,1.77
2023-05-07T13:49:08.313Z,1.75
2023-05-07T13:53:10.336Z,1.90
2023-05-07T13:57:12.329Z,2.05
2023-05-07T14:01:14.382Z,1.67
2023-05-07T14:05:16.460Z,1.70
2023-05-07T14:09:18.453Z,4.30
2023-05-07T14:13:20.715Z,2.88
2023-05-07T14:17:24.154Z,5.97
2023-05-07T14:21:26.367Z,2.00
2023-05-07T14:25:28.368Z,2.25
2023-05-07T14:29:30.551Z,2.00
2023-05-07T14:33:32.867Z,1.92
2023-05-07T14:37:35.006Z,1.98
2023-05-07T14:41:37.020Z,1.70
2023-05-07T14:45:39.274Z,1.80
2023-05-07T14:49:41.937Z,1.80
2023-05-07T14:53:44.079Z,1.70
2023-05-07T14:57:46.203Z,1.77
2023-05-07T15:01:49.098Z,2.03
2023-05-07T15:05:54.167Z,1.85
2023-05-07T15:09:56.250Z,1.35
2023-05-07T15:13:58.332Z,1.70
2023-05-07T15:18:01.189Z,1.60
2023-05-07T15:22:03.563Z,1.70
2023-05-07T15:26:06.347Z,2.00
2023-05-07T15:30:11.164Z,1.60
2023-05-07T15:34:15.780Z,1.48
2023-05-07T15:38:17.884Z,1.92
2023-05-07T15:42:19.907Z,1.70
2023-05-07T15:46:27.006Z,1.50
2023-05-07T15:50:29.590Z,1.40
2023-05-07T15:54:31.771Z,1.45
2023-05-07T15:58:33.996Z,1.40
2023-05-07T16:02:37.368Z,1.50
2023-05-07T16:06:39.477Z,1.50
2023-05-07T16:10:41.513Z,1.63
2023-05-07T16:14:43.510Z,1.63
2023-05-07T16:18:45.567Z,1.50
2023-05-07T16:22:47.621Z,1.70
2023-05-07T16:26:49.932Z,1.50
2023-05-07T16:30:52.007Z,1.52
2023-05-07T16:34:54.011Z,1.42
2023-05-07T16:38:56.092Z,1.70
2023-05-07T16:42:58.198Z,1.67
2023-05-07T16:47:00.308Z,1.70
2023-05-07T16:51:02.404Z,1.67
2023-05-07T16:55:04.845Z,1.60
2023-05-07T16:59:07.337Z,1.80
2023-05-07T17:03:09.656Z,1.80
2023-05-07T17:07:12.499Z,1.65
2023-05-07T17:11:14.535Z,1.80
2023-05-07T17:15:16.689Z,1.70
2023-05-07T17:19:18.723Z,1.95
2023-05-07T17:23:20.914Z,1.92
2023-05-07T17:27:23.011Z,2.50
2023-05-07T17:31:25.066Z,2.80
2023-05-07T17:35:27.451Z,2.60
2023-05-07T17:39:29.663Z,2.85
2023-05-07T17:43:31.730Z,3.17
2023-05-07T17:47:35.576Z,3.10
2023-05-07T17:51:50.332Z,3.20
2023-05-07T17:55:55.963Z,3.30
2023-05-07T17:59:58.406Z,2.83
2023-05-07T18:04:00.673Z,2.55
2023-05-07T18:08:02.861Z,2.20
2023-05-07T18:12:05.011Z,2.35
2023-05-07T18:16:07.482Z,2.00
2023-05-07T18:20:11.673Z,2.70
2023-05-07T18:24:13.830Z,2.42
2023-05-07T18:28:15.923Z,2.42
2023-05-07T18:32:18.067Z,2.00
2023-05-07T18:36:20.155Z,2.03
2023-05-07T18:40:22.213Z,1.50
2023-05-07T18:44:24.798Z,2.00
2023-05-07T18:48:26.827Z,1.50
2023-05-07T18:52:29.543Z,1.80
2023-05-07T18:56:31.506Z,1.80
2023-05-07T19:00:33.470Z,1.50
2023-05-07T19:04:36.279Z,1.60
2023-05-07T19:08:38.353Z,1.70
2023-05-07T19:12:40.878Z,1.50
2023-05-07T19:16:42.990Z,1.80
2023-05-07T19:20:45.024Z,1.55
2023-05-07T19:24:47.081Z,1.60
2023-05-07T19:29:01.367Z,1.60
2023-05-07T19:33:12.163Z,1.90
2023-05-07T19:37:14.300Z,3.10
2023-05-07T19:41:16.269Z,3.65
2023-05-07T19:45:18.254Z,4.20
2023-05-07T19:49:21.329Z,3.95
2023-05-07T19:53:23.330Z,4.20
2023-05-07T19:57:25.364Z,4.28
2023-05-07T20:01:28.783Z,4.75
2023-05-07T20:05:30.830Z,4.30
2023-05-07T20:09:33.084Z,2.50
2023-05-07T20:13:35.123Z,2.22
2023-05-07T20:17:37.334Z,2.30
2023-05-07T20:21:39.347Z,1.92
2023-05-07T20:25:43.322Z,2.10
2023-05-07T20:29:45.525Z,2.03
2023-05-07T20:33:47.535Z,1.90
2023-05-07T20:37:49.597Z,2.10
2023-05-07T20:41:52.407Z,1.80
2023-05-07T20:46:02.554Z,1.60
2023-05-07T20:50:05.085Z,1.48
2023-05-07T20:54:08.629Z,1.92
2023-05-07T20:58:10.639Z,1.90
2023-05-07T21:02:12.713Z,1.80
2023-05-07T21:06:14.756Z,2.25
2023-05-07T21:10:16.776Z,2.75
2023-05-07T21:14:19.660Z,2.72
2023-05-07T21:18:21.757Z,3.20
2023-05-07T21:22:24.099Z,3.05
2023-05-07T21:26:26.426Z,3.63
2023-05-07T21:30:28.473Z,4.45
2023-05-07T21:34:30.616Z,4.95
2023-05-07T21:38:32.619Z,4.60
2023-05-07T21:42:34.673Z,4.80
2023-05-07T21:46:36.778Z,4.90
2023-05-07T21:50:39.080Z,4.90
2023-05-07T21:54:41.527Z,5.03
2023-05-07T21:58:43.614Z,4.82
2023-05-07T22:02:45.819Z,4.82
2023-05-07T22:06:47.865Z,5.45
2023-05-07T22:10:50.560Z,4.93
2023-05-07T22:14:52.629Z,4.85
2023-05-07T22:18:54.679Z,4.70
2023-05-07T22:22:56.896Z,4.78
2023-05-07T22:26:58.994Z,4.80
2023-05-07T22:31:01.002Z,4.65
2023-05-07T22:35:03.952Z,5.38
2023-05-07T22:39:08.155Z,5.50
2023-05-07T22:43:10.151Z,5.63
2023-05-07T22:47:12.140Z,5.03
2023-05-07T22:51:14.636Z,7.53
2023-05-07T22:55:16.813Z,5.60
2023-05-07T22:59:22.242Z,4.88
2023-05-07T23:03:24.353Z,5.38
2023-05-07T23:07:26.434Z,4.97
2023-05-07T23:11:28.581Z,5.10
2023-05-07T23:15:31.888Z,4.97
2023-05-07T23:19:33.946Z,5.05
2023-05-07T23:23:36.120Z,4.97
2023-05-07T23:27:38.269Z,5.15
2023-05-07T23:31:40.397Z,5.38
2023-05-07T23:35:42.587Z,5.32
2023-05-07T23:39:44.846Z,5.70
2023-05-07T23:43:46.839Z,5.85
2023-05-07T23:47:48.851Z,5.85
2023-05-07T23:51:50.873Z,5.63
2023-05-07T23:55:52.836Z,6.18
2023-05-07T23:59:54.864Z,5.65
